Time;durP1;ratioP1;P1;durP2;ratioP2;P2;SDS_P1;SDS_P2;PMS_P1;PMS_P2;Temp;Humidity;BMP_temperature;BMP_pressure;BME280_temperature;BME280_humidity;BME280_pressure;Samples;Min_cycle;Max_cycle;Signal;HPM_P1;HPM_P2
2020/12/10 00:01:22;;;;;;;1999.90;999.90;;;4.00;99.90;;;;;;5080171;28;20413;-83
2020/12/10 00:03:50;;;;;;;1999.90;999.90;;;4.00;99.90;;;;;;5089689;28;20051;-83
2020/12/10 00:06:19;;;;;;;1999.90;999.90;;;4.00;99.90;;;;;;5091850;28;20154;-83
2020/12/10 00:08:46;;;;;;;1999.90;999.90;;;4.00;99.90;;;;;;5091265;28;20143;-83
2020/12/10 00:11:13;;;;;;;1999.90;999.90;;;4.00;99.90;;;;;;5090394;28;20048;-83
2020/12/10 00:13:41;;;;;;;1999.90;999.90;;;4.00;99.90;;;;;;5091739;28;20076;-82
2020/12/10 00:16:11;;;;;;;1999.90;999.90;;;4.00;99.90;;;;;;5091634;28;20040;-83
2020/12/10 00:18:40;;;;;;;1999.90;999.90;;;4.00;99.90;;;;;;5092336;28;20080;-83
2020/12/10 00:21:07;;;;;;;1999.90;999.90;;;4.00;99.90;;;;;;5095363;28;20056;-83
2020/12/10 00:23:35;;;;;;;1999.90;999.90;;;3.90;99.90;;;;;;5095515;28;20051;-83
2020/12/10 00:26:03;;;;;;;1999.90;999.90;;;4.00;99.90;;;;;;5095416;28;20048;-83
2020/12/10 00:28:30;;;;;;;1999.90;999.90;;;4.00;99.90;;;;;;5095636;28;20048;-84
2020/12/10 00:30:58;;;;;;;1999.90;999.90;;;3.90;99.90;;;;;;5094733;28;20056;-83
2020/12/10 00:33:25;;;;;;;1999.90;999.90;;;3.90;99.90;;;;;;5091005;28;20071;-83
2020/12/10 00:35:53;;;;;;;1999.90;999.90;;;3.90;99.90;;;;;;5094073;28;20048;-83
2020/12/10 00:38:20;;;;;;;1999.90;999.90;;;3.90;99.90;;;;;;5095961;28;20079;-83
2020/12/10 00:40:47;;;;;;;1999.90;999.90;;;3.90;99.90;;;;;;5095495;28;20138;-83
2020/12/10 00:43:14;;;;;;;1999.90;999.90;;;3.90;99.90;;;;;;5095170;28;20134;-83
2020/12/10 00:45:41;;;;;;;1999.90;999.90;;;4.00;99.90;;;;;;5090776;28;20080;-83
2020/12/10 00:48:08;;;;;;;1999.90;999.90;;;4.00;99.90;;;;;;5084138;28;20052;-83
2020/12/10 00:50:35;;;;;;;1999.90;999.90;;;4.00;99.90;;;;;;5092102;28;20078;-83
2020/12/10 00:53:03;;;;;;;1999.90;999.90;;;4.00;99.90;;;;;;5096204;28;20086;-83
2020/12/10 00:55:30;;;;;;;1999.90;999.90;;;4.00;99.90;;;;;;5094975;28;20059;-83
2020/12/10 00:57:57;;;;;;;1999.90;999.90;;;4.00;99.90;;;;;;5095362;28;20082;-83
2020/12/10 01:00:24;;;;;;;1999.90;999.90;;;4.00;99.90;;;;;;5094324;28;20142;-83
2020/12/10 01:02:51;;;;;;;1999.90;999.90;;;4.00;99.90;;;;;;5095368;28;20090;-83
2020/12/10 01:05:19;;;;;;;1999.90;999.90;;;4.00;99.90;;;;;;5094904;28;20048;-83
2020/12/10 01:07:49;;;;;;;1999.90;999.90;;;4.00;99.90;;;;;;5095412;28;20040;-83
2020/12/10 01:10:17;;;;;;;1999.90;999.90;;;4.00;99.90;;;;;;5094187;28;20086;-83
2020/12/10 01:12:44;;;;;;;1999.90;999.90;;;4.00;99.90;;;;;;5095139;28;20054;-83
2020/12/10 01:15:11;;;;;;;1999.90;999.90;;;4.00;99.90;;;;;;5095280;28;20060;-83
2020/12/10 01:17:41;;;;;;;1999.90;999.90;;;4.00;99.90;;;;;;5090533;28;20051;-84
2020/12/10 01:20:09;;;;;;;1999.90;999.90;;;4.00;99.90;;;;;;5094573;28;20060;-83
2020/12/10 01:22:37;;;;;;;1999.90;999.90;;;4.00;99.90;;;;;;5094359;28;20060;-84
2020/12/10 01:25:04;;;;;;;1999.90;999.90;;;4.00;99.90;;;;;;5094908;28;20139;-88
2020/12/10 01:27:32;;;;;;;1999.90;999.90;;;4.00;99.90;;;;;;5094763;28;20040;-88
2020/12/10 01:29:59;;;;;;;1999.90;999.90;;;4.00;99.90;;;;;;5095154;28;20048;-89
2020/12/10 01:32:26;;;;;;;1999.90;999.90;;;4.00;99.90;;;;;;5095366;28;20553;-89
2020/12/10 01:34:53;;;;;;;1999.90;999.90;;;4.00;99.90;;;;;;5095497;28;20163;-89
2020/12/10 01:37:20;;;;;;;1999.90;999.90;;;4.00;99.90;;;;;;5095464;28;20113;-88
2020/12/10 01:39:47;;;;;;;1999.90;999.90;;;4.00;99.90;;;;;;5095553;28;20051;-89
2020/12/10 01:42:15;;;;;;;1999.90;999.90;;;4.00;99.90;;;;;;5095383;28;20543;-88
2020/12/10 01:44:43;;;;;;;1999.90;999.90;;;4.00;99.90;;;;;;5080555;28;20135;-89
2020/12/10 01:47:11;;;;;;;1999.90;999.90;;;4.00;99.90;;;;;;5093024;28;20078;-88
2020/12/10 01:49:39;;;;;;;1999.90;999.90;;;4.00;99.90;;;;;;5094928;28;20079;-88
2020/12/10 01:52:07;;;;;;;1999.90;999.90;;;4.00;99.90;;;;;;5095104;28;20052;-89
2020/12/10 01:54:34;;;;;;;1999.90;999.90;;;4.00;99.90;;;;;;5095133;28;20083;-88
2020/12/10 01:57:02;;;;;;;1999.90;999.90;;;4.00;99.90;;;;;;5094439;28;20479;-88
2020/12/10 01:59:29;;;;;;;1999.90;999.90;;;4.00;99.90;;;;;;5095011;28;20086;-88
2020/12/10 02:01:56;;;;;;;1999.90;999.90;;;4.00;99.90;;;;;;5093381;28;20060;-88
2020/12/10 02:04:25;;;;;;;1999.90;999.90;;;4.00;99.90;;;;;;5095220;28;20059;-88
2020/12/10 02:06:52;;;;;;;1999.90;999.90;;;4.00;99.90;;;;;;5094635;28;20143;-88
2020/12/10 02:09:19;;;;;;;1999.90;999.90;;;3.90;99.90;;;;;;5094360;28;20151;-88
2020/12/10 02:11:46;;;;;;;1999.90;999.90;;;4.00;99.90;;;;;;5095202;28;20127;-88
2020/12/10 02:14:13;;;;;;;1999.90;999.90;;;4.00;99.90;;;;;;5080790;28;20044;-87
2020/12/10 02:16:40;;;;;;;1999.90;999.90;;;4.00;99.90;;;;;;5094156;28;20434;-87
2020/12/10 02:19:08;;;;;;;1999.90;999.90;;;4.00;99.90;;;;;;5093770;28;20105;-87
2020/12/10 02:21:35;;;;;;;1999.90;999.90;;;4.00;99.90;;;;;;5094757;28;20043;-88
2020/12/10 02:24:03;;;;;;;1999.90;999.90;;;4.00;99.90;;;;;;5093347;28;20147;-88
2020/12/10 02:26:30;;;;;;;1999.90;999.90;;;4.00;99.90;;;;;;5090162;28;20160;-88
2020/12/10 02:28:59;;;;;;;1999.90;999.90;;;3.90;99.90;;;;;;5094142;28;20063;-88
2020/12/10 02:31:30;;;;;;;1999.90;999.90;;;4.00;99.90;;;;;;5093792;28;20071;-88
2020/12/10 02:33:59;;;;;;;1999.90;999.90;;;3.90;99.90;;;;;;5093987;28;20052;-88
2020/12/10 02:36:26;;;;;;;1999.90;999.90;;;3.90;99.90;;;;;;5093814;28;20163;-88
2020/12/10 02:38:54;;;;;;;1999.90;999.90;;;3.90;99.90;;;;;;5094462;28;20127;-88
2020/12/10 02:41:22;;;;;;;1999.90;999.90;;;3.90;99.90;;;;;;5094343;28;20083;-88
2020/12/10 02:43:49;;;;;;;1999.90;999.90;;;3.90;99.90;;;;;;5093150;28;20056;-87
2020/12/10 02:46:16;;;;;;;1999.90;999.90;;;3.90;99.90;;;;;;5093830;28;20052;-88
2020/12/10 02:48:44;;;;;;;1999.90;999.90;;;3.90;99.90;;;;;;5093469;28;20051;-88
2020/12/10 02:51:11;;;;;;;1999.90;999.90;;;3.90;99.90;;;;;;5093595;28;20127;-88
2020/12/10 02:53:40;;;;;;;1999.90;999.90;;;3.90;99.90;;;;;;5093319;28;20351;-88
2020/12/10 02:56:08;;;;;;;1999.90;999.90;;;3.90;99.90;;;;;;5093226;28;20090;-85
2020/12/10 02:58:36;;;;;;;1999.90;999.90;;;3.80;99.90;;;;;;5093605;28;20080;-85
2020/12/10 03:01:04;;;;;;;1999.90;999.90;;;3.80;99.90;;;;;;5093019;28;20150;-84
2020/12/10 03:03:31;;;;;;;1999.90;999.90;;;3.80;99.90;;;;;;5093234;28;20446;-85
2020/12/10 03:05:58;;;;;;;1999.90;999.90;;;3.80;99.90;;;;;;5080851;28;20471;-85
2020/12/10 03:08:26;;;;;;;1999.90;999.90;;;3.80;99.90;;;;;;5091716;28;20048;-85
2020/12/10 03:10:54;;;;;;;1999.90;999.90;;;3.80;99.90;;;;;;5093425;28;20047;-85
2020/12/10 03:13:21;;;;;;;1999.90;999.90;;;3.80;99.90;;;;;;5092974;28;20414;-86
2020/12/10 03:15:49;;;;;;;1999.90;999.90;;;3.80;99.90;;;;;;5086990;28;20054;-85
2020/12/10 03:18:16;;;;;;;1999.90;999.90;;;3.80;99.90;;;;;;5093500;28;20090;-85
2020/12/10 03:20:43;;;;;;;1999.90;999.90;;;3.80;99.90;;;;;;5092855;28;20184;-85
2020/12/10 03:23:10;;;;;;;1999.90;999.90;;;3.80;99.90;;;;;;5092694;28;20130;-86
2020/12/10 03:25:37;;;;;;;1999.90;999.90;;;3.70;99.90;;;;;;5092450;28;20043;-85
2020/12/10 03:28:06;;;;;;;1999.90;999.90;;;3.80;99.90;;;;;;5092789;28;20063;-85
2020/12/10 03:30:34;;;;;;;1999.90;999.90;;;3.70;99.90;;;;;;5091950;28;20124;-85
2020/12/10 03:33:02;;;;;;;1999.90;999.90;;;3.80;99.90;;;;;;5093176;28;20142;-85
2020/12/10 03:35:29;;;;;;;1999.90;999.90;;;3.70;99.90;;;;;;5092553;28;20051;-85
2020/12/10 03:37:56;;;;;;;1999.90;999.90;;;3.70;99.90;;;;;;5092083;28;20054;-85
2020/12/10 03:40:23;;;;;;;1999.90;999.90;;;3.70;99.90;;;;;;5093029;28;20772;-85
2020/12/10 03:42:51;;;;;;;1999.90;999.90;;;3.70;99.90;;;;;;5092519;28;20044;-85
2020/12/10 03:45:17;;;;;;;1999.90;999.90;;;3.70;99.90;;;;;;5092903;28;20047;-85
2020/12/10 03:47:45;;;;;;;1999.90;999.90;;;3.60;99.90;;;;;;5092361;28;20490;-85
2020/12/10 03:50:13;;;;;;;1999.90;999.90;;;3.60;99.90;;;;;;5092719;28;20051;-86
2020/12/10 03:52:40;;;;;;;1999.90;999.90;;;3.60;99.90;;;;;;5092393;28;20052;-86
2020/12/10 03:55:07;;;;;;;1999.90;999.90;;;3.50;99.90;;;;;;5092035;28;20140;-86
2020/12/10 03:57:34;;;;;;;1999.90;999.90;;;3.50;99.90;;;;;;5092743;28;20520;-85
2020/12/10 04:00:03;;;;;;;1999.90;999.90;;;3.50;99.90;;;;;;5092272;28;20070;-85
2020/12/10 04:02:32;;;;;;;1999.90;999.90;;;3.40;99.90;;;;;;5092951;28;20405;-86
2020/12/10 04:04:59;;;;;;;1999.90;999.90;;;3.40;99.90;;;;;;5085756;28;20059;-85
2020/12/10 04:07:27;;;;;;;1999.90;999.90;;;3.40;99.90;;;;;;5092850;28;20079;-85
2020/12/10 04:09:54;;;;;;;1999.90;999.90;;;3.40;99.90;;;;;;5092306;28;20052;-86
2020/12/10 04:12:21;;;;;;;1999.90;999.90;;;3.30;99.90;;;;;;5092973;28;20048;-86
2020/12/10 04:14:48;;;;;;;1999.90;999.90;;;3.30;99.90;;;;;;5079246;28;20045;-85
2020/12/10 04:17:15;;;;;;;1999.90;999.90;;;3.30;99.90;;;;;;5086565;28;20047;-85
2020/12/10 04:19:42;;;;;;;1999.90;999.90;;;3.20;99.90;;;;;;5083608;28;20087;-86
2020/12/10 04:22:09;;;;;;;1999.90;999.90;;;3.20;99.90;;;;;;5088712;28;20049;-86
2020/12/10 04:24:36;;;;;;;1999.90;999.90;;;3.10;99.90;;;;;;5082633;28;20139;-85
2020/12/10 04:27:03;;;;;;;1999.90;999.90;;;3.10;99.90;;;;;;5091530;28;20555;-85
2020/12/10 04:29:30;;;;;;;1999.90;999.90;;;3.00;99.90;;;;;;5092764;28;20062;-85
2020/12/10 04:31:57;;;;;;;1999.90;999.90;;;3.00;99.90;;;;;;5092564;28;20052;-85
2020/12/10 04:34:25;;;;;;;1999.90;999.90;;;2.90;99.90;;;;;;5092125;28;20055;-85
2020/12/10 04:36:52;;;;;;;1999.90;999.90;;;2.90;99.90;;;;;;5092276;28;20127;-85
2020/12/10 04:39:19;;;;;;;1999.90;999.90;;;2.90;99.90;;;;;;5092436;28;20133;-85
2020/12/10 04:41:47;;;;;;;1999.90;999.90;;;2.80;99.90;;;;;;5092625;28;20397;-85
2020/12/10 04:44:14;;;;;;;1999.90;999.90;;;2.80;99.90;;;;;;5091733;28;20054;-85
2020/12/10 04:46:44;;;;;;;1999.90;999.90;;;2.80;99.90;;;;;;5092205;28;20196;-83
2020/12/10 04:49:12;;;;;;;1999.90;999.90;;;2.70;99.90;;;;;;5091224;28;20074;-84
2020/12/10 04:51:42;;;;;;;1999.90;999.90;;;2.60;99.90;;;;;;5091793;28;20134;-82
2020/12/10 04:54:09;;;;;;;1999.90;999.90;;;2.60;99.90;;;;;;5090805;28;20520;-83
2020/12/10 04:56:36;;;;;;;1999.90;999.90;;;2.60;99.90;;;;;;5090963;28;20478;-81
2020/12/10 04:59:04;;;;;;;1999.90;999.90;;;2.50;99.90;;;;;;5090731;28;20410;-83
2020/12/10 05:01:31;;;;;;;1999.90;999.90;;;2.50;99.90;;;;;;5091411;28;20202;-83
2020/12/10 05:03:59;;;;;;;1999.90;999.90;;;2.50;99.90;;;;;;5091373;28;20059;-83
2020/12/10 05:06:26;;;;;;;1999.90;999.90;;;2.50;99.90;;;;;;5092812;28;20139;-83
2020/12/10 05:09:07;;;;;;;1999.90;999.90;;;2.40;99.90;;;;;;5094953;28;20461;-83
2020/12/10 05:11:35;;;;;;;1999.90;999.90;;;2.40;99.90;;;;;;5094206;28;20067;-82
2020/12/10 05:14:04;;;;;;;1999.90;999.90;;;2.40;99.90;;;;;;5094959;28;20058;-83
2020/12/10 05:16:30;;;;;;;1999.90;999.90;;;2.30;99.90;;;;;;5094527;28;20048;-84
2020/12/10 05:19:17;;;;;;;1999.90;999.90;;;2.30;99.90;;;;;;5094654;28;20055;-83
2020/12/10 05:22:01;;;;;;;1999.90;999.90;;;2.30;99.90;;;;;;5094461;28;20056;-83
2020/12/10 05:24:28;;;;;;;1999.90;999.90;;;2.30;99.90;;;;;;5088215;28;20048;-83
2020/12/10 05:27:14;;;;;;;1999.90;999.90;;;2.30;99.90;;;;;;5094190;28;20040;-83
2020/12/10 05:29:42;;;;;;;1999.90;999.90;;;2.30;99.90;;;;;;5094258;28;20525;-83
2020/12/10 05:32:10;;;;;;;1999.90;999.90;;;2.30;99.90;;;;;;5094653;28;20047;-83
2020/12/10 05:34:36;;;;;;;1999.90;999.90;;;2.30;99.90;;;;;;5094502;28;20442;-83
2020/12/10 05:37:03;;;;;;;1999.90;999.90;;;2.20;99.90;;;;;;5094169;28;20054;-83
2020/12/10 05:39:30;;;;;;;1999.90;999.90;;;2.20;99.90;;;;;;5094071;28;20501;-82
2020/12/10 05:41:57;;;;;;;1999.90;999.90;;;2.20;99.90;;;;;;5094637;28;20142;-83
2020/12/10 05:44:26;;;;;;;1999.90;999.90;;;2.20;99.90;;;;;;5089500;28;20154;-82
2020/12/10 05:47:04;;;;;;;1999.90;999.90;;;2.20;99.90;;;;;;5086765;28;20048;-82
2020/12/10 05:49:32;;;;;;;1999.90;999.90;;;2.20;99.90;;;;;;5092457;28;20736;-83
2020/12/10 05:52:03;;;;;;;1999.90;999.90;;;2.10;99.90;;;;;;5094200;28;20489;-82
2020/12/10 05:54:33;;;;;;;1999.90;999.90;;;2.10;99.90;;;;;;5093725;28;20052;-83
2020/12/10 05:57:03;;;;;;;1999.90;999.90;;;2.10;99.90;;;;;;5093758;28;20044;-82
2020/12/10 05:59:31;;;;;;;1999.90;999.90;;;2.10;99.90;;;;;;5083635;28;20087;-83
2020/12/10 06:02:02;;;;;;;1999.90;999.90;;;2.10;99.90;;;;;;5093639;28;20175;-83
2020/12/10 06:04:29;;;;;;;1999.90;999.90;;;2.10;99.90;;;;;;5093449;28;20083;-83
2020/12/10 06:06:58;;;;;;;1999.90;999.90;;;2.10;99.90;;;;;;5094384;28;20048;-83
2020/12/10 06:09:26;;;;;;;1999.90;999.90;;;2.00;99.90;;;;;;5093510;28;20101;-82
2020/12/10 06:12:01;;;;;;;1999.90;999.90;;;2.00;99.90;;;;;;5084866;28;20048;-83
2020/12/10 06:14:28;;;;;;;1999.90;999.90;;;2.00;99.90;;;;;;5093874;28;20052;-83
2020/12/10 06:17:06;;;;;;;1999.90;999.90;;;2.00;99.90;;;;;;5083363;28;20063;-83
2020/12/10 06:19:34;;;;;;;1999.90;999.90;;;2.00;99.90;;;;;;5081998;28;20080;-83
2020/12/10 06:22:23;;;;;;;1999.90;999.90;;;2.00;99.90;;;;;;5091238;28;20043;-83
2020/12/10 06:24:50;;;;;;;1999.90;999.90;;;2.00;99.90;;;;;;5093331;28;20155;-83
2020/12/10 06:27:25;;;;;;;1999.90;999.90;;;1.90;99.90;;;;;;5093242;28;20119;-83
2020/12/10 06:30:18;;;;;;;1999.90;999.90;;;1.90;99.90;;;;;;5093511;28;20389;-83
2020/12/10 06:32:47;;;;;;;1999.90;999.90;;;1.90;99.90;;;;;;5081778;28;20473;-83
2020/12/10 06:35:30;;;;;;;1999.90;999.90;;;1.90;99.90;;;;;;5093462;28;20078;-83
2020/12/10 06:37:57;;;;;;;1999.90;999.90;;;1.90;99.90;;;;;;5092228;28;20060;-83
2020/12/10 06:40:30;;;;;;;1999.90;999.90;;;1.90;99.90;;;;;;5093301;28;20383;-83
2020/12/10 06:42:58;;;;;;;1999.90;999.90;;;1.90;99.90;;;;;;5084635;28;20490;-83
2020/12/10 06:45:31;;;;;;;1999.90;999.90;;;1.90;99.90;;;;;;5093085;28;20123;-82
2020/12/10 06:48:00;;;;;;;1999.90;999.90;;;1.80;99.90;;;;;;5093258;28;20048;-83
2020/12/10 06:50:30;;;;;;;1999.90;999.90;;;1.80;99.90;;;;;;5092903;28;20062;-83
2020/12/10 06:53:16;;;;;;;1999.90;999.90;;;1.80;99.90;;;;;;5091270;28;20062;-83
2020/12/10 06:56:05;;;;;;;1999.90;999.90;;;1.80;99.90;;;;;;5092123;28;20439;-83
2020/12/10 06:58:54;;;;;;;1999.90;999.90;;;1.80;99.90;;;;;;5086636;28;20570;-83
2020/12/10 07:01:26;;;;;;;1999.90;999.90;;;1.80;99.90;;;;;;5092524;28;20067;-83
2020/12/10 07:04:17;;;;;;;1999.90;999.90;;;1.80;99.90;;;;;;5088320;28;20063;-83
2020/12/10 07:06:45;;;;;;;1999.90;999.90;;;1.70;99.90;;;;;;5090659;28;20451;-83
2020/12/10 07:09:14;;;;;;;1999.90;999.90;;;1.80;99.90;;;;;;5092015;28;20044;-83
2020/12/10 07:11:45;;;;;;;1999.90;999.90;;;1.70;99.90;;;;;;5092478;28;20511;-82
2020/12/10 07:14:23;;;;;;;1999.90;999.90;;;1.70;99.90;;;;;;5093124;28;20456;-83
2020/12/10 07:16:52;;;;;;;1999.90;999.90;;;1.70;99.90;;;;;;5091937;28;20055;-82
2020/12/10 07:19:20;;;;;;;1999.90;999.90;;;1.70;99.90;;;;;;5091893;28;20036;-83
2020/12/10 07:21:47;;;;;;;1999.90;999.90;;;1.70;99.90;;;;;;5092235;28;20518;-83
2020/12/10 07:24:14;;;;;;;1999.90;999.90;;;1.70;99.90;;;;;;5092178;28;20126;-82
2020/12/10 07:26:42;;;;;;;1999.90;999.90;;;1.70;99.90;;;;;;5092367;28;20055;-83
2020/12/10 07:29:09;;;;;;;1999.90;999.90;;;1.70;99.90;;;;;;5088760;28;20044;-82
2020/12/10 07:31:36;;;;;;;1999.90;999.90;;;1.70;99.90;;;;;;5092513;28;20054;-83
2020/12/10 07:34:04;;;;;;;1999.90;999.90;;;1.70;99.90;;;;;;5092110;28;20044;-83
2020/12/10 07:36:32;;;;;;;1999.90;999.90;;;1.70;99.90;;;;;;5092095;28;20052;-83
2020/12/10 07:38:59;;;;;;;1999.90;999.90;;;1.70;99.90;;;;;;5091178;28;20765;-82
2020/12/10 07:41:37;;;;;;;1999.90;999.90;;;1.60;99.90;;;;;;5092180;28;20048;-83
2020/12/10 07:44:04;;;;;;;1999.90;999.90;;;1.60;99.90;;;;;;5091696;28;20060;-83
2020/12/10 07:46:35;;;;;;;1999.90;999.90;;;1.60;99.90;;;;;;5092544;28;20051;-82
2020/12/10 07:49:02;;;;;;;1999.90;999.90;;;1.50;99.90;;;;;;5091556;28;20147;-82
2020/12/10 07:51:29;;;;;;;1999.90;999.90;;;1.50;99.90;;;;;;5092147;28;20143;-83
2020/12/10 07:54:03;;;;;;;1999.90;999.90;;;1.50;99.90;;;;;;5091344;28;20426;-83
2020/12/10 07:56:31;;;;;;;1999.90;999.90;;;1.50;99.90;;;;;;5090770;28;20055;-83
2020/12/10 07:59:03;;;;;;;1999.90;999.90;;;1.50;99.90;;;;;;5092818;28;20044;-83
2020/12/10 08:01:37;;;;;;;1999.90;999.90;;;1.50;99.90;;;;;;5079814;28;20135;-83
2020/12/10 08:04:14;;;;;;;1999.90;999.90;;;1.50;99.90;;;;;;5089853;28;20047;-84
2020/12/10 08:06:43;;;;;;;1999.90;999.90;;;1.50;99.90;;;;;;5077972;28;20052;-83
2020/12/10 08:09:11;;;;;;;1999.90;999.90;;;1.50;99.90;;;;;;5090782;28;20500;-83
2020/12/10 08:11:56;;;;;;;1999.90;999.90;;;1.50;99.90;;;;;;5086606;28;20079;-89
2020/12/10 08:14:24;;;;;;;;;;;1.50;99.90;;;;;;5093038;28;20084;-88
2020/12/10 08:16:52;;;;;;;1999.90;999.90;;;1.50;99.90;;;;;;5092447;28;19920;-88
2020/12/10 08:19:21;;;;;;;1999.90;999.90;;;1.50;99.90;;;;;;5092124;28;20055;-88
2020/12/10 08:21:49;;;;;;;1999.90;999.90;;;1.50;99.90;;;;;;5092079;28;20076;-88
2020/12/10 08:24:35;;;;;;;1999.90;999.90;;;1.50;99.90;;;;;;5088626;28;20079;-88
2020/12/10 08:27:03;;;;;;;1999.90;999.90;;;1.50;99.90;;;;;;5088015;28;20083;-87
2020/12/10 08:29:30;;;;;;;1999.90;999.90;;;1.40;99.90;;;;;;5091200;28;20045;-88
2020/12/10 08:32:11;;;;;;;1999.90;999.90;;;1.50;99.90;;;;;;5091043;28;20137;-88
2020/12/10 08:34:39;;;;;;;1999.90;999.90;;;1.50;99.90;;;;;;5087551;28;20135;-88
2020/12/10 08:37:07;;;;;;;1999.90;999.90;;;1.50;99.90;;;;;;5090411;28;20071;-88
2020/12/10 08:39:35;;;;;;;1999.90;999.90;;;1.50;99.90;;;;;;5090417;28;20079;-88
2020/12/10 08:42:04;;;;;;;1999.90;999.90;;;1.50;99.90;;;;;;5092846;28;20157;-88
2020/12/10 08:44:44;;;;;;;1999.90;999.90;;;1.50;99.90;;;;;;5094545;28;20501;-88
2020/12/10 08:47:25;;;;;;;1999.90;999.90;;;1.50;99.90;;;;;;5092676;28;20044;-88
2020/12/10 08:50:22;;;;;;;1999.90;999.90;;;1.50;99.90;;;;;;5095615;28;20066;-88
2020/12/10 08:53:02;;;;;;;1999.90;999.90;;;1.50;99.90;;;;;;5095349;28;20481;-88
2020/12/10 08:55:35;;;;;;;1999.90;999.90;;;1.60;99.90;;;;;;5093598;28;20115;-88
2020/12/10 08:58:03;;;;;;;1999.90;999.90;;;1.60;99.90;;;;;;5093968;28;20483;-88
2020/12/10 09:00:30;;;;;;;1999.90;999.90;;;1.50;99.90;;;;;;5092201;28;20147;-88
2020/12/10 09:02:57;;;;;;;1999.90;999.90;;;1.60;99.90;;;;;;5095514;28;20093;-88
2020/12/10 09:05:24;;;;;;;1999.90;999.90;;;1.50;99.90;;;;;;5096129;28;20072;-88
2020/12/10 09:07:51;;;;;;;1999.90;999.90;;;1.50;99.90;;;;;;5095216;28;20056;-88
2020/12/10 09:10:19;;;;;;;1999.90;999.90;;;1.60;99.90;;;;;;5094932;28;20064;-88
2020/12/10 09:12:47;;;;;;;1999.90;999.90;;;1.60;99.90;;;;;;5088363;28;20052;-88
2020/12/10 09:15:14;;;;;;;1999.90;999.90;;;1.60;99.90;;;;;;5094881;28;20122;-88
2020/12/10 09:17:41;;;;;;;1999.90;999.90;;;1.60;99.90;;;;;;5095516;28;20409;-88
2020/12/10 09:20:09;;;;;;;1999.90;999.90;;;1.60;99.90;;;;;;5091170;28;20770;-88
2020/12/10 09:22:36;;;;;;;1999.90;999.90;;;1.60;99.90;;;;;;5096003;28;20062;-88
2020/12/10 09:25:03;;;;;;;1999.90;999.90;;;1.60;99.90;;;;;;5095712;28;20135;-87
2020/12/10 09:27:32;;;;;;;1999.90;999.90;;;1.60;99.90;;;;;;5095332;28;20086;-88
2020/12/10 09:29:59;;;;;;;1999.90;999.90;;;1.50;99.90;;;;;;5095549;28;20131;-87
2020/12/10 09:32:32;;;;;;;1999.90;999.90;;;1.60;99.90;;;;;;5095418;28;20515;-88
2020/12/10 09:34:59;;;;;;;1999.90;999.90;;;1.60;99.90;;;;;;5095452;28;20139;-88
2020/12/10 09:37:26;;;;;;;1999.90;999.90;;;1.60;99.90;;;;;;5096087;28;20087;-88
2020/12/10 09:39:54;;;;;;;1999.90;999.90;;;1.60;99.90;;;;;;5098459;28;20471;-88
2020/12/10 09:42:21;;;;;;;1999.90;999.90;;;1.60;99.90;;;;;;5095862;28;20427;-87
2020/12/10 09:44:48;;;;;;;1999.90;999.90;;;1.60;99.90;;;;;;5088867;28;20515;-88
2020/12/10 09:47:15;;;;;;;1999.90;999.90;;;1.60;99.90;;;;;;5093098;28;20508;-88
2020/12/10 09:49:43;;;;;;;1999.90;999.90;;;1.60;99.90;;;;;;5094784;28;20048;-88
2020/12/10 09:52:12;;;;;;;1999.90;999.90;;;1.60;99.90;;;;;;5095640;28;20067;-89
2020/12/10 09:55:01;;;;;;;1999.90;999.90;;;1.70;99.90;;;;;;5092051;28;20087;-88
2020/12/10 09:57:31;;;;;;;1999.90;999.90;;;1.70;99.90;;;;;;5093934;28;20051;-89
2020/12/10 09:59:59;;;;;;;1999.90;999.90;;;1.70;99.90;;;;;;5095090;28;20044;-89
2020/12/10 10:02:26;;;;;;;1999.90;999.90;;;1.70;99.90;;;;;;5094738;28;20054;-89
2020/12/10 10:04:55;;;;;;;1999.90;999.90;;;1.70;99.90;;;;;;5094640;28;20059;-89
2020/12/10 10:07:22;;;;;;;1999.90;999.90;;;1.80;99.90;;;;;;5094380;28;20054;-88
2020/12/10 10:09:49;;;;;;;1999.90;999.90;;;1.80;99.90;;;;;;5093804;28;20051;-88
2020/12/10 10:12:16;;;;;;;1999.90;999.90;;;1.80;99.90;;;;;;5080052;28;20052;-89
2020/12/10 10:14:43;;;;;;;1999.90;999.90;;;1.90;99.90;;;;;;5094518;28;20076;-89
2020/12/10 10:17:11;;;;;;;1999.90;999.90;;;1.90;99.90;;;;;;5093100;28;20039;-89
2020/12/10 10:19:38;;;;;;;1999.90;999.90;;;1.90;99.90;;;;;;5093509;28;20070;-89
2020/12/10 10:22:06;;;;;;;1999.90;999.90;;;1.90;99.90;;;;;;5093389;28;20048;-88
2020/12/10 10:24:35;;;;;;;1999.90;999.90;;;1.90;99.90;;;;;;5093932;28;20060;-88
2020/12/10 10:27:02;;;;;;;1999.90;999.90;;;1.90;99.90;;;;;;5093516;28;20126;-88
2020/12/10 10:29:30;;;;;;;1999.90;999.90;;;1.90;99.90;;;;;;5093678;28;20046;-85
2020/12/10 10:31:57;;;;;;;1999.90;999.90;;;2.00;99.90;;;;;;5092057;28;20421;-86
2020/12/10 10:34:24;;;;;;;1999.90;999.90;;;2.00;99.90;;;;;;5088542;28;20425;-86
2020/12/10 10:36:52;;;;;;;1999.90;999.90;;;2.00;99.90;;;;;;5093720;28;20139;-86
2020/12/10 10:39:24;;;;;;;1999.90;999.90;;;2.00;99.90;;;;;;5092035;28;20577;-86
2020/12/10 10:42:00;;;;;;;1999.90;999.90;;;2.00;99.90;;;;;;5092752;28;20051;-87
2020/12/10 10:44:34;;;;;;;1999.90;999.90;;;2.10;99.90;;;;;;5090605;28;20059;-86
2020/12/10 10:47:02;;;;;;;1999.90;999.90;;;2.10;99.90;;;;;;5087640;28;20068;-86
2020/12/10 10:49:31;;;;;;;1999.90;999.90;;;2.10;99.90;;;;;;5093179;28;20097;-86
2020/12/10 10:51:58;;;;;;;1999.90;999.90;;;2.10;99.90;;;;;;5092582;28;20056;-86
2020/12/10 10:54:29;;;;;;;1999.90;999.90;;;2.10;99.90;;;;;;5090567;28;20131;-84
2020/12/10 10:56:56;;;;;;;1999.90;999.90;;;2.10;99.90;;;;;;5092592;28;20048;-88
2020/12/10 10:59:23;;;;;;;1999.90;999.90;;;2.10;99.90;;;;;;5092844;28;20044;-88
2020/12/10 11:01:51;;;;;;;1999.90;999.90;;;2.20;99.90;;;;;;5093285;28;20063;-88
2020/12/10 11:04:18;;;;;;;1999.90;999.90;;;2.20;99.90;;;;;;5092637;28;20456;-89
2020/12/10 11:06:49;;;;;;;1999.90;999.90;;;2.20;99.90;;;;;;5091364;28;20056;-88
2020/12/10 11:09:17;;;;;;;1999.90;999.90;;;2.20;99.90;;;;;;5092664;28;20048;-88
2020/12/10 11:11:45;;;;;;;1999.90;999.90;;;2.20;99.90;;;;;;5093165;28;20105;-89
2020/12/10 11:14:12;;;;;;;1999.90;999.90;;;2.20;99.90;;;;;;5093336;28;20066;-88
2020/12/10 11:16:39;;;;;;;1999.90;999.90;;;2.20;99.90;;;;;;5091937;28;20142;-88
2020/12/10 11:19:06;;;;;;;1999.90;999.90;;;2.30;99.90;;;;;;5093505;28;20555;-88
2020/12/10 11:21:33;;;;;;;1999.90;999.90;;;2.30;99.90;;;;;;5093621;28;20138;-89
2020/12/10 11:24:00;;;;;;;1999.90;999.90;;;2.30;99.90;;;;;;5092284;28;20068;-88
2020/12/10 11:26:26;;;;;;;1999.90;999.90;;;2.30;99.90;;;;;;5092172;28;20075;-88
2020/12/10 11:28:56;;;;;;;1999.90;999.90;;;2.30;99.90;;;;;;5092816;28;20051;-88
2020/12/10 11:31:23;;;;;;;1999.90;999.90;;;2.30;99.90;;;;;;5092299;28;20079;-88
2020/12/10 11:33:51;;;;;;;1999.90;999.90;;;2.40;99.90;;;;;;5092106;28;20048;-89
2020/12/10 11:36:19;;;;;;;1999.90;999.90;;;2.30;99.90;;;;;;5092892;28;20058;-89
2020/12/10 11:38:46;;;;;;;1999.90;999.90;;;2.40;99.90;;;;;;5093034;28;20056;-89
2020/12/10 11:41:13;;;;;;;1999.90;999.90;;;2.30;99.90;;;;;;5092885;28;20129;-88
2020/12/10 11:43:40;;;;;;;1999.90;999.90;;;2.40;99.90;;;;;;5092632;28;20078;-88
2020/12/10 11:46:11;;;;;;;1999.90;999.90;;;2.30;99.90;;;;;;5091604;28;20054;-88
2020/12/10 11:48:38;;;;;;;1999.90;999.90;;;2.40;99.90;;;;;;5092954;28;20056;-88
2020/12/10 11:51:05;;;;;;;1999.90;999.90;;;2.40;99.90;;;;;;5092746;28;20055;-88
2020/12/10 11:53:33;;;;;;;1999.90;999.90;;;2.40;99.90;;;;;;5092775;28;20048;-88
2020/12/10 11:56:01;;;;;;;1999.90;999.90;;;2.40;99.90;;;;;;5092764;28;20538;-89
2020/12/10 11:58:30;;;;;;;1999.90;999.90;;;2.40;99.90;;;;;;5092181;28;20093;-88
2020/12/10 12:00:58;;;;;;;1999.90;999.90;;;2.40;99.90;;;;;;5092700;28;20109;-87
2020/12/10 12:03:28;;;;;;;1999.90;999.90;;;2.40;99.90;;;;;;5078485;28;20102;-89
2020/12/10 12:05:55;;;;;;;1999.90;999.90;;;2.40;99.90;;;;;;5092696;28;20068;-88
2020/12/10 12:08:25;;;;;;;1999.90;999.90;;;2.40;99.90;;;;;;5092253;28;20051;-87
2020/12/10 12:10:52;;;;;;;1999.90;999.90;;;2.40;99.90;;;;;;5091517;28;20052;-88
2020/12/10 12:13:19;;;;;;;1999.90;999.90;;;2.40;99.90;;;;;;5091615;28;20127;-88
2020/12/10 12:15:47;;;;;;;1999.90;999.90;;;2.50;99.90;;;;;;5094345;28;20076;-89
2020/12/10 12:18:16;;;;;;;1999.90;999.90;;;2.50;99.90;;;;;;5095734;28;20044;-89